Main page
METAR-TAF:

METAR-TAF

Airports :

Bournemouth Airport

Bournemouth, England

latitude: 50-47N, longitude: 001-50W, elevation: 11 m

Current weather observation

The report was made 36 minutes ago, at 16:20 UTC
Wind 5 kt from the North/Northeast
Temperature 13°C
Humidity 88%
Pressure 1008 hPa
Visibility 10 km or more
Broken clouds at a height of 4400 ft

METAR: EGHH 231620Z 02005KT 9999 BKN044 13/11 Q1008

Time: 17:56 (16:56 UTC)

Forecast

The report was made 3 hours and 1 minutes ago, at 13:55 UTC
Forecast valid from 23 at 15 UTC to 23 at 24 UTC
Wind 5 kt from the East/Northeast
Visibility 10 km or more
Scattered clouds at a height of 2000 ft
Temporary
from 23 at 15 UTC to 23 at 24 UTC
Visibility: 6000 m
Broken clouds at a height of 1000 ft
light rain, drizzle
Probability 30% :
Temporary
from 23 at 15 UTC to 23 at 24 UTC
Visibility: 2500 m
Broken clouds at a height of 500 ft
rain, drizzle

TAF: EGHH 231355Z 2315/2324 06005KT 9999 SCT020 TEMPO 2315/2324 6000 -RADZ BKN010 PROB30 TEMPO 2315/2324 2500 RADZ BKN005

Weather observations and forecasts of more than 4000 airports (METAR and TAF reports).

The available stations are represented by yellow and red dots on the map.

Hover mouse over dot to see the name of the station.

Then click to see weather observations and forecasts.

To change the map : click on the green buttons with a black cross to zoom in, on the green button with a dash to zoom out, or on the green arrows for adjacent maps.


METAR-TAF: